Time;durP1;ratioP1;P1;durP2;ratioP2;P2;SDS_P1;SDS_P2;PMS_P1;PMS_P2;Temp;Humidity;BMP_temperature;BMP_pressure;BME280_temperature;BME280_humidity;BME280_pressure;Samples;Min_cycle;Max_cycle;Signal;HPM_P1;HPM_P2
2024/01/11 00:00:06;;;;;;;0.80;0.80;;;;;;;-5.06;90.21;97702.78;29373;219;63009;-55
2024/01/11 00:00:38;;;;;;;0.80;0.80;;;;;;;-5.07;90.33;97701.16;29371;264;64009;-56
2024/01/11 00:01:10;;;;;;;0.80;0.80;;;;;;;-5.06;90.22;97697.50;29373;244;63009;-57
2024/01/11 00:01:46;;;;;;;0.80;0.80;;;;;;;-5.05;90.13;97707.09;29373;224;63004;-56
2024/01/11 00:02:17;;;;;;;0.70;0.70;;;;;;;-5.03;90.08;97702.44;29373;277;63027;-56
2024/01/11 00:02:49;;;;;;;0.80;0.80;;;;;;;-5.03;90.07;97702.44;29373;204;63009;-56
2024/01/11 00:03:20;;;;;;;0.80;0.80;;;;;;;-5.03;90.29;97707.75;29373;229;63009;-56
2024/01/11 00:04:58;;;;;;;0.83;0.83;;;;;;;-5.01;90.09;97704.91;88178;204;64005;-56
2024/01/11 00:05:29;;;;;;;0.80;0.80;;;;;;;-5.00;90.09;97701.28;29394;370;64009;-56
2024/01/11 00:06:01;;;;;;;0.70;0.70;;;;;;;-5.01;89.85;97700.44;29373;199;63004;-56
2024/01/11 00:06:32;;;;;;;0.80;0.80;;;;;;;-5.00;90.01;97704.75;29371;300;64013;-56
2024/01/11 00:07:05;;;;;;;0.85;0.85;;;;;;;-4.99;89.72;97700.28;29373;216;63004;-56
2024/01/11 00:07:37;;;;;;;0.80;0.80;;;;;;;-4.99;90.09;97698.47;29373;198;63008;-57
2024/01/11 00:08:08;;;;;;;0.80;0.80;;;;;;;-4.99;90.01;97703.75;29373;203;63004;-56
2024/01/11 00:08:39;;;;;;;0.70;0.70;;;;;;;-4.99;90.07;97698.47;29371;208;64014;-57
2024/01/11 00:09:11;;;;;;;0.80;0.80;;;;;;;-5.00;89.97;97702.09;29373;315;63005;-55
2024/01/11 00:09:43;;;;;;;0.80;0.80;;;;;;;-5.02;90.18;97698.81;29373;295;63009;-55
2024/01/11 00:10:14;;;;;;;0.93;0.93;;;;;;;-5.06;90.36;97697.50;29373;202;63005;-55
2024/01/11 00:10:45;;;;;;;0.80;0.80;;;;;;;-5.07;90.13;97696.69;29373;358;63009;-55
2024/01/11 00:11:16;;;;;;;0.80;0.80;;;;;;;-5.05;90.20;97704.44;29371;213;64009;-55
2024/01/11 00:11:47;;;;;;;0.77;0.77;;;;;;;-5.03;90.43;97697.16;29371;357;64013;-56
2024/01/11 00:12:19;;;;;;;0.70;0.70;;;;;;;-5.03;90.14;97699.81;29373;205;63010;-56
2024/01/11 00:12:50;;;;;;;0.80;0.80;;;;;;;-5.05;90.48;97704.44;29373;204;63009;-55
2024/01/11 00:13:21;;;;;;;0.70;0.70;;;;;;;-5.06;90.66;97702.78;29373;270;63004;-55
2024/01/11 00:13:52;;;;;;;0.80;0.80;;;;;;;-5.06;90.19;97700.16;29373;362;63016;-55
2024/01/11 00:14:24;;;;;;;0.80;0.80;;;;;;;-5.08;90.55;97694.19;29373;224;63004;-55
2024/01/11 00:14:55;;;;;;;0.85;0.85;;;;;;;-5.08;90.20;97704.78;29373;309;63008;-56
2024/01/11 00:15:27;;;;;;;0.70;0.70;;;;;;;-5.07;90.37;97701.16;29373;203;63005;-55
2024/01/11 00:16:00;;;;;;;0.80;0.80;;;;;;;-5.02;90.63;97700.63;29373;305;63009;-56
2024/01/11 00:16:31;;;;;;;0.80;0.80;;;;;;;-5.01;90.21;97699.63;29372;197;63005;-56
2024/01/11 00:17:02;;;;;;;0.70;0.70;;;;;;;-5.00;90.10;97702.09;29371;221;64013;-56
2024/01/11 00:17:34;;;;;;;1.00;1.00;;;;;;;-4.97;90.10;97709.69;29373;226;63005;-56
2024/01/11 00:18:06;;;;;;;0.80;0.80;;;;;;;-4.94;89.95;97706.69;29373;229;63009;-56
2024/01/11 00:18:37;;;;;;;0.80;0.80;;;;;;;-4.92;89.62;97704.69;29371;209;64009;-56
2024/01/11 00:19:09;;;;;;;0.80;0.80;;;;;;;-4.94;89.95;97706.69;29373;313;63009;-56
2024/01/11 00:19:40;;;;;;;0.80;0.80;;;;;;;-4.96;89.79;97714.00;29373;225;63004;-55
2024/01/11 00:20:12;;;;;;;0.80;0.80;;;;;;;-4.95;89.88;97704.22;29373;305;63009;-56
2024/01/11 00:20:43;;;;;;;0.70;0.70;;;;;;;-4.95;89.78;97710.34;29371;212;64009;-55
2024/01/11 00:21:14;;;;;;;0.70;0.70;;;;;;;-4.96;90.01;97708.69;29373;212;63009;-55
2024/01/11 00:21:46;;;;;;;0.73;0.73;;;;;;;-4.96;89.74;97703.41;29373;205;63004;-56
2024/01/11 00:22:17;;;;;;;0.70;0.70;;;;;;;-4.94;90.07;97711.16;29373;271;63008;-56
2024/01/11 00:22:48;;;;;;;0.80;0.80;;;;;;;-4.94;90.07;97712.00;29373;281;63005;-56
2024/01/11 00:23:19;;;;;;;4.72;4.43;;;;;;;-4.91;90.01;97711.66;29373;199;63009;-56
2024/01/11 00:23:50;;;;;;;0.70;0.70;;;;;;;-4.88;89.55;97710.47;29373;237;63005;-57
2024/01/11 00:24:21;;;;;;;1.17;1.17;;;;;;;-4.89;89.67;97708.81;29373;371;63009;-57
2024/01/11 00:24:53;;;;;;;0.80;0.80;;;;;;;-4.90;89.43;97702.72;29373;311;63005;-56
2024/01/11 00:25:24;;;;;;;1.27;1.25;;;;;;;-4.91;89.71;97703.69;29373;321;63009;-56
2024/01/11 00:25:59;;;;;;;0.80;0.80;;;;;;;-4.94;89.91;97714.63;29371;219;64009;-57
2024/01/11 00:26:30;;;;;;;0.80;0.80;;;;;;;-4.93;89.89;97708.34;29371;216;64013;-55
2024/01/11 00:27:05;;;;;;;0.80;0.80;;;;;;;-4.91;89.82;97716.94;29373;210;63004;-56
2024/01/11 00:27:36;;;;;;;1.92;1.92;;;;;;;-4.92;90.07;97712.66;29371;212;64013;-56
2024/01/11 00:28:07;;;;;;;0.73;0.73;;;;;;;-4.95;90.05;97710.34;29373;218;63004;-56
2024/01/11 00:28:38;;;;;;;0.70;0.70;;;;;;;-4.95;89.97;97713.00;29373;220;63009;-56
2024/01/11 00:29:09;;;;;;;1.05;1.05;;;;;;;-4.93;90.11;97710.16;29373;210;63010;-56
2024/01/11 00:29:41;;;;;;;0.75;0.75;;;;;;;-4.92;89.86;97715.28;29373;223;63008;-56
2024/01/11 00:30:13;;;;;;;0.80;0.80;;;;;;;-4.99;89.79;97711.69;29373;302;63004;-55
2024/01/11 00:30:44;;;;;;;0.80;0.80;;;;;;;-4.96;89.86;97714.00;29372;276;64009;-56
2024/01/11 00:31:15;;;;;;;0.90;0.90;;;;;;;-4.93;89.76;97718.94;29373;209;63005;-56
2024/01/11 00:31:47;;;;;;;0.80;0.80;;;;;;;-4.94;89.87;97722.56;29373;226;63009;-56
2024/01/11 00:32:21;;;;;;;0.80;0.80;;;;;;;-4.95;89.78;97713.00;29371;258;64009;-56
2024/01/11 00:32:53;;;;;;;0.90;0.90;;;;;;;-4.95;89.86;97705.06;29373;222;63009;-56
2024/01/11 00:33:24;;;;;;;0.77;0.77;;;;;;;-4.96;90.13;97719.28;29373;349;63005;-56
2024/01/11 00:33:56;;;;;;;0.80;0.80;;;;;;;-4.98;90.18;97713.34;29371;235;64013;-55
2024/01/11 00:34:30;;;;;;;0.70;0.70;;;;;;;-4.96;90.29;97718.47;29373;202;63005;-57
2024/01/11 00:35:01;;;;;;;0.80;0.80;;;;;;;-4.94;90.32;97717.28;29373;215;63009;-56
2024/01/11 00:35:33;;;;;;;0.80;0.80;;;;;;;-4.95;90.19;97718.28;29373;277;63004;-56
2024/01/11 00:36:04;;;;;;;0.80;0.80;;;;;;;-4.96;90.31;97721.94;29373;213;63009;-56
2024/01/11 00:36:38;;;;;;;0.80;0.80;;;;;;;-4.94;90.11;97727.06;29373;286;63004;-56
2024/01/11 00:37:10;;;;;;;0.80;0.80;;;;;;;-4.95;90.11;97715.63;29373;243;63008;-57
2024/01/11 00:37:42;;;;;;;0.80;0.80;;;;;;;-4.98;90.28;97718.62;29373;361;63004;-56
2024/01/11 00:38:16;;;;;;;0.70;0.70;;;;;;;-4.99;90.14;97716.97;29373;369;63021;-56
2024/01/11 00:38:48;;;;;;;0.80;0.80;;;;;;;-5.00;90.70;97720.63;29372;204;64005;-57
2024/01/11 00:39:19;;;;;;;0.80;0.80;;;;;;;-5.02;90.90;97721.78;29371;295;64032;-56
2024/01/11 00:39:52;;;;;;;0.73;0.73;;;;;;;-5.05;91.02;97717.69;29373;229;63005;-56
2024/01/11 00:40:23;;;;;;;0.80;0.80;;;;;;;-5.07;91.11;97717.03;29373;281;63009;-56
2024/01/11 00:40:57;;;;;;;0.80;0.80;;;;;;;-5.09;91.19;97713.72;29373;228;63005;-57
2024/01/11 00:41:28;;;;;;;0.80;0.80;;;;;;;-5.11;91.41;97710.44;29373;199;63009;-55
2024/01/11 00:42:00;;;;;;;3.90;3.70;;;;;;;-5.12;91.30;97714.91;29373;199;63007;-55
2024/01/11 00:42:31;;;;;;;0.80;0.80;;;;;;;-5.09;91.39;97724.31;29373;235;63009;-57
2024/01/11 00:43:03;;;;;;;3.45;3.25;;;;;;;-5.08;91.62;97715.37;29373;204;63000;-56
2024/01/11 00:43:34;;;;;;;0.73;0.73;;;;;;;-5.10;91.70;97717.38;29373;198;63009;-56
2024/01/11 00:44:07;;;;;;;2.58;2.47;;;;;;;-5.09;91.71;97708.44;29372;281;64004;-56
2024/01/11 00:44:38;;;;;;;0.80;0.80;;;;;;;-5.09;91.84;97714.56;29371;260;64013;-56
2024/01/11 00:45:10;;;;;;;0.90;0.90;;;;;;;-5.10;92.05;97709.44;29373;268;63004;-56
2024/01/11 00:45:41;;;;;;;0.80;0.80;;;;;;;-5.12;91.63;97714.06;29373;204;63009;-56
2024/01/11 00:46:13;;;;;;;0.80;0.80;;;;;;;-5.11;91.70;97716.53;29373;203;63005;-56
2024/01/11 00:46:45;;;;;;;0.80;0.80;;;;;;;-5.10;91.89;97717.38;29373;247;63009;-56
2024/01/11 00:47:16;;;;;;;0.80;0.80;;;;;;;-5.11;91.58;97721.00;29373;202;63005;-56
2024/01/11 00:47:48;;;;;;;0.70;0.70;;;;;;;-5.14;91.95;97719.53;29373;228;63009;-56
2024/01/11 00:48:19;;;;;;;0.80;0.80;;;;;;;-5.17;92.33;97716.41;29373;247;63005;-57
2024/01/11 00:48:50;;;;;;;0.80;0.80;;;;;;;-5.21;92.58;97717.78;29373;321;63009;-57
2024/01/11 00:49:21;;;;;;;0.70;0.70;;;;;;;-5.23;92.71;97712.66;29373;208;63005;-56
2024/01/11 00:49:53;;;;;;;0.80;0.80;;;;;;;-5.24;92.51;97715.47;29371;197;64006;-57
2024/01/11 00:50:25;;;;;;;0.80;0.80;;;;;;;-5.24;92.74;97712.84;29373;277;63004;-56
2024/01/11 00:50:56;;;;;;;0.80;0.80;;;;;;;-5.26;92.78;97717.47;29373;324;63009;-56
2024/01/11 00:51:27;;;;;;;0.80;0.80;;;;;;;-5.23;92.86;97711.84;29373;372;63004;-56
2024/01/11 00:51:58;;;;;;;1.05;1.05;;;;;;;-5.19;92.86;97713.13;29373;215;63009;-56
2024/01/11 00:52:29;;;;;;;1.15;1.15;;;;;;;-5.15;92.38;97714.41;29373;353;63004;-56
2024/01/11 00:53:01;;;;;;;0.80;0.80;;;;;;;-5.17;92.60;97714.59;29373;215;63009;-56
2024/01/11 00:53:33;;;;;;;0.80;0.80;;;;;;;-5.17;92.63;97708.47;29373;226;63005;-56
2024/01/11 00:54:05;;;;;;;0.80;0.80;;;;;;;-5.18;92.55;97709.47;29373;220;63009;-59
2024/01/11 00:54:36;;;;;;;3.47;3.17;;;;;;;-5.19;92.26;97715.75;29373;200;63005;-56
2024/01/11 00:55:08;;;;;;;0.80;0.80;;;;;;;-5.19;92.47;97707.81;29371;323;64013;-56
2024/01/11 00:55:39;;;;;;;0.90;0.90;;;;;;;-5.18;92.64;97709.47;29373;208;63005;-55
2024/01/11 00:56:20;;;;;;;0.80;0.80;;;;;;;-5.19;92.71;97713.13;29373;199;63009;-55
2024/01/11 00:56:51;;;;;;;0.80;0.80;;;;;;;-5.17;92.70;97713.75;29395;229;63005;-56
2024/01/11 00:57:24;;;;;;;0.80;0.80;;;;;;;-5.16;92.52;97702.19;29395;343;63009;-56
2024/01/11 00:57:55;;;;;;;0.80;0.80;;;;;;;-5.15;92.42;97709.13;29373;216;63004;-56
2024/01/11 00:58:27;;;;;;;0.80;0.80;;;;;;;-5.17;92.50;97711.94;29373;220;63009;-56
2024/01/11 00:59:02;;;;;;;0.70;0.70;;;;;;;-5.18;92.71;97702.34;29373;222;63004;-56
2024/01/11 00:59:33;;;;;;;0.80;0.80;;;;;;;-5.24;92.57;97702.25;29373;274;63009;-55
2024/01/11 01:00:06;;;;;;;0.80;0.80;;;;;;;-5.26;92.97;97706.87;29373;196;63004;-56
2024/01/11 01:00:38;;;;;;;0.80;0.80;;;;;;;-5.32;93.20;97704.94;29371;332;64014;-55
2024/01/11 01:01:10;;;;;;;0.80;0.80;;;;;;;-5.34;94.01;97699.00;29373;197;63005;-56
2024/01/11 01:01:50;;;;;;;0.80;0.80;;;;;;;-5.36;93.61;97706.28;29373;200;63009;-56
2024/01/11 01:02:21;;;;;;;0.88;0.88;;;;;;;-5.36;93.72;97699.16;29373;235;63005;-55
2024/01/11 01:02:53;;;;;;;1.12;1.12;;;;;;;-5.32;93.59;97700.47;29373;197;63009;-56
2024/01/11 01:03:25;;;;;;;0.80;0.80;;;;;;;-5.28;93.27;97703.59;29373;204;63019;-56
2024/01/11 01:03:56;;;;;;;0.70;0.70;;;;;;;-5.25;92.92;97708.53;29372;224;63009;-55
2024/01/11 01:04:27;;;;;;;0.80;0.80;;;;;;;-5.26;93.18;97701.59;29373;207;63004;-56
2024/01/11 01:04:59;;;;;;;1.27;1.27;;;;;;;-5.30;93.22;97708.22;29373;258;63009;-56
2024/01/11 01:05:30;;;;;;;0.80;0.80;;;;;;;-5.36;93.25;97711.56;29373;286;63006;-56
2024/01/11 01:06:02;;;;;;;1.27;1.27;;;;;;;-5.40;93.30;97716.38;29371;224;64013;-56
2024/01/11 01:06:34;;;;;;;11.93;11.23;;;;;;;-5.43;93.37;97709.59;29363;281;65004;-56
2024/01/11 01:07:06;;;;;;;0.80;0.80;;;;;;;-5.45;93.32;97708.94;29373;218;63008;-56
2024/01/11 01:07:37;;;;;;;0.70;0.70;;;;;;;-5.44;93.66;97715.06;29373;254;63004;-56
2024/01/11 01:08:08;;;;;;;1.20;1.20;;;;;;;-5.42;93.39;97713.06;29373;202;63005;-56
2024/01/11 01:08:39;;;;;;;0.80;0.80;;;;;;;-5.41;93.53;97714.72;29373;309;63005;-57
2024/01/11 01:09:11;;;;;;;0.82;0.82;;;;;;;-5.41;93.49;97709.44;29373;208;63009;-56
2024/01/11 01:09:42;;;;;;;0.80;0.80;;;;;;;-5.40;93.35;97711.91;29373;222;63005;-56
2024/01/11 01:10:13;;;;;;;0.80;0.80;;;;;;;-5.40;93.21;97711.09;29373;367;63009;-56
2024/01/11 01:10:45;;;;;;;0.80;0.80;;;;;;;-5.40;93.71;97714.53;29373;274;63005;-56
2024/01/11 01:11:16;;;;;;;0.70;0.70;;;;;;;-5.40;93.55;97717.19;29371;293;64013;-55
2024/01/11 01:11:47;;;;;;;0.80;0.80;;;;;;;-5.40;93.47;97727.78;29373;262;63004;-56
2024/01/11 01:12:18;;;;;;;0.80;0.80;;;;;;;-5.38;93.55;97713.56;29373;230;63009;-55
2024/01/11 01:12:50;;;;;;;0.80;0.80;;;;;;;-5.37;93.37;97720.50;29373;205;63015;-56
2024/01/11 01:13:21;;;;;;;2.28;2.17;;;;;;;-5.36;93.30;97719.50;29373;199;63009;-58
2024/01/11 01:13:52;;;;;;;0.80;0.80;;;;;;;-5.36;93.81;97727.44;29373;222;63004;-56
2024/01/11 01:14:23;;;;;;;2.15;2.05;;;;;;;-5.35;93.41;97723.78;29373;228;63004;-56
2024/01/11 01:14:55;;;;;;;0.80;0.80;;;;;;;-5.35;93.53;97729.09;29373;205;63005;-56
2024/01/11 01:15:26;;;;;;;1.02;1.02;;;;;;;-5.32;93.34;97728.75;29373;270;63009;-56
2024/01/11 01:15:58;;;;;;;1.55;1.55;;;;;;;-5.30;93.30;97726.75;29373;219;63011;-55
2024/01/11 01:16:29;;;;;;;0.80;0.80;;;;;;;-5.29;93.34;97723.09;29371;317;64013;-56
2024/01/11 01:17:00;;;;;;;0.80;0.80;;;;;;;-5.26;93.26;97717.47;29373;212;63005;-56
2024/01/11 01:17:31;;;;;;;0.80;0.80;;;;;;;-5.26;93.15;97723.59;29373;206;63009;-56
2024/01/11 01:18:04;;;;;;;0.80;0.80;;;;;;;-5.25;93.00;97725.25;29373;231;63005;-56
2024/01/11 01:18:36;;;;;;;0.80;0.80;;;;;;;-5.26;92.96;97728.06;29373;231;63009;-56
2024/01/11 01:19:07;;;;;;;0.80;0.80;;;;;;;-5.28;93.18;97720.28;29373;200;63004;-57
2024/01/11 01:19:39;;;;;;;1.35;1.35;;;;;;;-5.26;92.97;97720.94;29373;306;63009;-56
2024/01/11 01:20:11;;;;;;;0.80;0.80;;;;;;;-5.26;93.21;97722.75;29373;253;63004;-55
2024/01/11 01:20:43;;;;;;;0.80;0.80;;;;;;;-5.27;93.46;97726.41;29373;377;63009;-56
2024/01/11 01:21:14;;;;;;;0.80;0.80;;;;;;;-5.30;93.97;97727.56;29373;249;63004;-55
2024/01/11 01:21:46;;;;;;;0.80;0.80;;;;;;;-5.31;93.87;97727.75;29371;202;64013;-56
2024/01/11 01:22:17;;;;;;;0.80;0.80;;;;;;;-5.33;94.28;97722.63;29373;287;63004;-56
2024/01/11 01:22:49;;;;;;;0.70;0.70;;;;;;;-5.34;93.95;97714.84;29373;255;63009;-56
2024/01/11 01:23:21;;;;;;;0.77;0.77;;;;;;;-5.32;93.95;97718.16;29373;255;63005;-55
2024/01/11 01:23:52;;;;;;;0.80;0.80;;;;;;;-5.32;93.85;97713.69;29373;241;63009;-55
2024/01/11 01:24:23;;;;;;;0.80;0.80;;;;;;;-5.30;93.91;97711.69;29373;319;63005;-54
2024/01/11 01:24:55;;;;;;;0.80;0.80;;;;;;;-5.27;93.58;97710.53;29373;239;63009;-56
2024/01/11 01:25:26;;;;;;;0.80;0.80;;;;;;;-5.25;93.80;97716.47;29373;297;63005;-56
2024/01/11 01:25:57;;;;;;;0.80;0.80;;;;;;;-5.25;93.55;97713.84;29373;257;63009;-55
2024/01/11 01:26:28;;;;;;;0.80;0.80;;;;;;;-5.26;93.75;97718.28;29373;311;63005;-56
2024/01/11 01:27:00;;;;;;;0.80;0.80;;;;;;;-5.27;93.93;97715.81;29371;203;64013;-56
2024/01/11 01:27:31;;;;;;;0.80;0.80;;;;;;;-5.30;94.00;97711.69;29373;215;63009;-56
2024/01/11 01:28:03;;;;;;;1.00;1.00;;;;;;;-5.30;94.08;97711.69;29373;253;63009;-56
2024/01/11 01:28:36;;;;;;;0.80;0.80;;;;;;;-5.30;94.16;97716.16;29373;270;63004;-55
2024/01/11 01:29:08;;;;;;;0.80;0.80;;;;;;;-5.30;94.33;97706.41;29371;208;64013;-57
2024/01/11 01:29:39;;;;;;;3.95;2.80;;;;;;;-5.29;94.06;97707.22;29373;313;63004;-55
2024/01/11 01:30:10;;;;;;;0.80;0.80;;;;;;;-5.30;93.90;97706.41;29373;202;63009;-55
2024/01/11 01:30:42;;;;;;;0.80;0.80;;;;;;;-5.28;94.12;97704.41;29373;332;63004;-56
2024/01/11 01:31:14;;;;;;;0.80;0.80;;;;;;;-5.28;93.98;97709.72;29373;273;63009;-56
2024/01/11 01:31:46;;;;;;;1.40;1.40;;;;;;;-5.25;94.14;97708.53;29373;355;63014;-56
2024/01/11 01:32:17;;;;;;;0.90;0.90;;;;;;;-5.26;93.88;97709.53;29373;213;63009;-56
2024/01/11 01:32:49;;;;;;;0.80;0.80;;;;;;;-5.29;94.00;97710.72;29373;336;63005;-57
2024/01/11 01:33:20;;;;;;;4.12;3.72;;;;;;;-5.30;93.96;97708.22;29373;204;63009;-55
2024/01/11 01:33:52;;;;;;;0.80;0.80;;;;;;;-5.35;94.11;97713.22;29373;203;63005;-56
2024/01/11 01:34:23;;;;;;;0.80;0.80;;;;;;;-5.38;94.81;97708.25;29371;338;64013;-57
2024/01/11 01:34:54;;;;;;;0.80;0.80;;;;;;;-5.39;95.21;97707.44;29373;225;63004;-56
2024/01/11 01:35:25;;;;;;;1.37;1.37;;;;;;;-5.39;95.07;97712.72;29373;203;63009;-56
2024/01/11 01:35:57;;;;;;;0.80;0.80;;;;;;;-5.40;95.12;97714.53;29373;223;63004;-56
2024/01/11 01:36:28;;;;;;;0.80;0.80;;;;;;;-5.40;95.18;97709.25;29373;241;63009;-56
2024/01/11 01:36:59;;;;;;;0.80;0.80;;;;;;;-5.40;95.34;97711.91;29373;216;63004;-56
2024/01/11 01:37:32;;;;;;;1.70;1.60;;;;;;;-5.40;95.10;97711.09;29373;229;63009;-56
2024/01/11 01:38:03;;;;;;;0.80;0.80;;;;;;;-5.42;95.28;97713.91;29373;207;63005;-56
2024/01/11 01:38:35;;;;;;;0.80;0.80;;;;;;;-5.45;95.12;97714.25;29373;202;63005;-55
2024/01/11 01:39:06;;;;;;;0.80;0.80;;;;;;;-5.47;95.27;97718.88;29373;198;63005;-56
2024/01/11 01:39:38;;;;;;;0.90;0.90;;;;;;;-5.48;95.41;97719.88;29371;215;64013;-56
2024/01/11 01:40:13;;;;;;;0.90;0.90;;;;;;;-5.47;95.30;97715.41;29373;205;63017;-56
2024/01/11 01:40:45;;;;;;;0.80;0.80;;;;;;;-5.47;95.28;97713.59;29373;333;63009;-56
2024/01/11 01:41:16;;;;;;;0.80;0.80;;;;;;;-5.47;95.38;97716.22;29373;372;63005;-56
2024/01/11 01:41:47;;;;;;;3.00;2.87;;;;;;;-5.46;95.12;97720.53;29373;226;63009;-56
2024/01/11 01:42:20;;;;;;;0.80;0.80;;;;;;;-5.45;94.99;97719.53;29373;215;63004;-56
2024/01/11 01:42:59;;;;;;;0.80;0.80;;;;;;;-5.43;94.93;97720.19;29373;229;63009;-56
2024/01/11 01:43:34;;;;;;;0.80;0.80;;;;;;;-5.45;94.92;97730.09;29373;368;63004;-56
2024/01/11 01:44:05;;;;;;;0.80;0.80;;;;;;;-5.51;94.96;97722.84;29373;222;63009;-56
2024/01/11 01:44:36;;;;;;;0.80;0.80;;;;;;;-5.52;95.25;97737.06;29373;207;63004;-56
2024/01/11 01:45:09;;;;;;;1.42;1.42;;;;;;;-5.52;95.46;97723.03;29371;264;64014;-56
2024/01/11 01:45:43;;;;;;;0.80;0.80;;;;;;;-5.53;95.47;97722.19;29373;227;63005;-56
2024/01/11 01:46:22;;;;;;;1.42;1.33;;;;;;;-5.50;95.33;97726.31;29373;224;63009;-57
2024/01/11 01:46:53;;;;;;;2.60;2.45;;;;;;;-5.49;95.36;97728.78;29373;230;63005;-55
2024/01/11 01:47:26;;;;;;;0.80;0.80;;;;;;;-5.49;95.27;97728.78;29373;203;63009;-56
2024/01/11 01:47:57;;;;;;;0.80;0.80;;;;;;;-5.46;95.25;97728.47;29373;198;63005;-57
2024/01/11 01:48:28;;;;;;;0.80;0.80;;;;;;;-5.48;95.18;97730.44;29373;327;63009;-56
2024/01/11 01:49:01;;;;;;;0.80;0.80;;;;;;;-5.52;95.30;97736.25;29373;218;63005;-56
2024/01/11 01:49:32;;;;;;;2.72;2.62;;;;;;;-5.59;95.56;97738.78;29373;328;63009;-56
2024/01/11 01:50:06;;;;;;;1.23;1.23;;;;;;;-5.64;96.09;97740.28;29373;214;63004;-57
2024/01/11 01:50:39;;;;;;;0.80;0.80;;;;;;;-5.70;96.32;97740.94;29371;251;64013;-55
2024/01/11 01:51:10;;;;;;;2.65;2.45;;;;;;;-5.77;96.48;97748.72;29373;336;63004;-56
2024/01/11 01:51:42;;;;;;;2.97;2.87;;;;;;;-5.77;96.39;97746.09;29373;207;63019;-56
2024/01/11 01:52:16;;;;;;;1.12;1.12;;;;;;;-5.75;96.58;97744.91;29373;207;63004;-56
2024/01/11 01:52:48;;;;;;;0.80;0.80;;;;;;;-5.68;96.32;97749.53;29373;341;63023;-56
2024/01/11 01:53:21;;;;;;;1.15;1.15;;;;;;;-5.65;96.42;97744.75;29373;214;63005;-57
2024/01/11 01:53:56;;;;;;;0.90;0.90;;;;;;;-5.63;96.16;97742.75;29373;258;63009;-56
2024/01/11 01:54:28;;;;;;;1.05;1.05;;;;;;;-5.60;96.53;97746.88;29373;268;63017;-56
2024/01/11 01:55:01;;;;;;;0.85;0.85;;;;;;;-5.61;96.40;97740.75;29373;253;63009;-56
2024/01/11 01:55:32;;;;;;;0.80;0.80;;;;;;;-5.62;96.75;97744.41;29373;224;63005;-56
2024/01/11 01:56:05;;;;;;;1.10;1.10;;;;;;;-5.61;96.79;97745.22;29371;213;64013;-57
2024/01/11 01:56:37;;;;;;;0.90;0.90;;;;;;;-5.61;96.61;97746.03;29373;400;63005;-56
2024/01/11 01:57:09;;;;;;;0.80;0.80;;;;;;;-5.64;96.32;97748.19;29373;227;63009;-57
2024/01/11 01:57:43;;;;;;;0.82;0.82;;;;;;;-5.66;96.45;97747.53;29373;202;63018;-57
2024/01/11 01:58:18;;;;;;;1.48;1.48;;;;;;;-5.62;96.08;97751.50;29373;196;63009;-56
2024/01/11 01:58:52;;;;;;;1.08;1.08;;;;;;;-5.58;96.19;97748.34;29373;209;63004;-56
2024/01/11 01:59:25;;;;;;;1.00;1.00;;;;;;;-5.58;96.05;97751.00;29373;202;63022;-56
2024/01/11 01:59:57;;;;;;;0.82;0.82;;;;;;;-5.54;95.93;97757.56;29373;226;63004;-57
2024/01/11 02:00:28;;;;;;;0.80;0.80;;;;;;;-5.54;95.75;97757.56;29373;227;63009;-56
2024/01/11 02:01:00;;;;;;;0.80;0.80;;;;;;;-5.55;95.73;97755.94;29373;209;63005;-55
2024/01/11 02:01:32;;;;;;;0.80;0.80;;;;;;;-5.56;96.06;97762.22;29371;328;64014;-56
2024/01/11 02:02:05;;;;;;;1.10;1.10;;;;;;;-5.59;95.96;97759.91;29373;254;63005;-56
2024/01/11 02:02:38;;;;;;;0.80;0.80;;;;;;;-5.61;96.11;97758.44;29373;285;63009;-56
2024/01/11 02:03:09;;;;;;;0.90;0.90;;;;;;;-5.61;96.11;97766.38;29373;202;63014;-56
2024/01/11 02:03:41;;;;;;;0.80;0.80;;;;;;;-5.60;96.05;97766.22;29373;199;63009;-56
2024/01/11 02:04:16;;;;;;;0.88;0.88;;;;;;;-5.60;96.20;97763.56;29373;211;63005;-56
2024/01/11 02:04:47;;;;;;;0.90;0.90;;;;;;;-5.59;96.23;97759.91;29373;202;63009;-56
2024/01/11 02:05:19;;;;;;;0.80;0.80;;;;;;;-5.59;96.55;97753.81;29373;197;63004;-56
2024/01/11 02:05:51;;;;;;;0.80;0.80;;;;;;;-5.60;96.54;97758.28;29373;207;63009;-56
2024/01/11 02:06:25;;;;;;;0.80;0.80;;;;;;;-5.61;96.71;97751.34;29373;353;63004;-56
2024/01/11 02:06:58;;;;;;;0.80;0.80;;;;;;;-5.59;97.00;97749.34;29371;199;64013;-56
2024/01/11 02:07:30;;;;;;;1.30;1.30;;;;;;;-5.59;96.88;97746.69;29373;322;63004;-56
2024/01/11 02:08:08;;;;;;;0.80;0.80;;;;;;;-5.57;97.10;97754.47;29373;229;63009;-56
2024/01/11 02:08:42;;;;;;;0.90;0.90;;;;;;;-5.57;97.07;97752.66;29373;216;63005;-56
2024/01/11 02:09:15;;;;;;;1.58;1.48;;;;;;;-5.57;97.33;97752.66;29373;197;63009;-56
2024/01/11 02:09:47;;;;;;;0.85;0.85;;;;;;;-5.56;97.42;97753.47;29373;210;63005;-56
2024/01/11 02:10:19;;;;;;;1.23;1.23;;;;;;;-5.56;97.34;97756.12;29373;218;63009;-57
2024/01/11 02:10:52;;;;;;;0.90;0.90;;;;;;;-5.55;97.32;97750.66;29373;335;63005;-58
2024/01/11 02:11:24;;;;;;;0.80;0.80;;;;;;;-5.52;96.94;97755.56;29373;232;63016;-55
2024/01/11 02:11:56;;;;;;;0.80;0.80;;;;;;;-5.51;96.87;97756.41;29373;222;63004;-57
2024/01/11 02:12:29;;;;;;;0.80;0.80;;;;;;;-5.48;96.77;97751.59;29371;230;64013;-56
2024/01/11 02:13:00;;;;;;;0.80;0.80;;;;;;;-5.46;96.74;97754.91;29373;232;63004;-55
2024/01/11 02:13:32;;;;;;;0.80;0.80;;;;;;;-5.46;96.35;97754.91;29373;322;63008;-56
2024/01/11 02:14:04;;;;;;;0.80;0.80;;;;;;;-5.46;96.51;97754.06;29373;221;63004;-57
2024/01/11 02:14:38;;;;;;;0.80;0.80;;;;;;;-5.47;96.37;97757.72;29373;212;63008;-55
2024/01/11 02:15:10;;;;;;;0.80;0.80;;;;;;;-5.49;96.59;97751.78;29373;210;63004;-56
2024/01/11 02:15:41;;;;;;;0.80;0.80;;;;;;;-5.50;96.34;97750.13;29373;216;63009;-56
2024/01/11 02:16:13;;;;;;;0.80;0.80;;;;;;;-5.51;96.24;97757.22;29373;197;63005;-56
2024/01/11 02:16:45;;;;;;;0.80;0.80;;;;;;;-5.52;95.95;97755.56;29373;210;63009;-56
2024/01/11 02:17:16;;;;;;;0.80;0.80;;;;;;;-5.53;96.19;97753.94;29371;235;64009;-56
2024/01/11 02:17:48;;;;;;;0.80;0.80;;;;;;;-5.53;96.08;97753.94;29373;229;63009;-55
2024/01/11 02:18:19;;;;;;;0.80;0.80;;;;;;;-5.54;96.20;97757.56;29373;254;63005;-56
2024/01/11 02:18:51;;;;;;;2.65;2.55;;;;;;;-5.54;95.91;97752.28;29371;202;64013;-57
2024/01/11 02:19:22;;;;;;;0.80;0.80;;;;;;;-5.54;96.02;97741.69;29371;366;64009;-56
2024/01/11 02:19:53;;;;;;;0.70;0.70;;;;;;;-5.54;96.00;97749.62;29373;233;63009;-56
2024/01/11 02:20:25;;;;;;;0.80;0.80;;;;;;;-5.54;96.08;97752.28;29373;215;63004;-55
2024/01/11 02:20:57;;;;;;;0.80;0.80;;;;;;;-5.55;95.93;97755.94;29373;236;63009;-55
2024/01/11 02:21:31;;;;;;;0.80;0.80;;;;;;;-5.56;96.23;97749.00;29373;285;63004;-57
2024/01/11 02:22:12;;;;;;;0.90;0.90;;;;;;;-5.57;96.23;97751.81;29373;217;63017;-57
2024/01/11 02:22:47;;;;;;;;;;;;;;;-5.60;96.46;97752.97;29973;982;29005;-56
2024/01/11 02:23:21;;;;;;;0.80;0.80;;;;;;;-5.58;96.62;97748.34;29400;390;63001;-56
2024/01/11 02:24:19;;;;;;;0.80;0.80;;;;;;;-5.58;96.74;97750.16;29371;378;64013;-57
2024/01/11 02:24:50;;;;;;;1.23;1.23;;;;;;;-5.61;96.96;97751.34;29371;247;64009;-56
2024/01/11 02:25:22;;;;;;;0.90;0.90;;;;;;;-5.65;96.65;97744.75;29373;202;63009;-56
2024/01/11 02:25:53;;;;;;;0.82;0.82;;;;;;;-5.67;96.80;97754.66;29373;252;63005;-56
2024/01/11 02:26:24;;;;;;;0.80;0.80;;;;;;;-5.68;97.08;97750.34;29373;227;63009;-57
2024/01/11 02:27:03;;;;;;;0.80;0.80;;;;;;;-5.68;96.75;97753.00;29372;202;63004;-56
2024/01/11 02:27:48;;;;;;;86.43;36.20;;;;;;;-5.67;96.71;97746.72;29362;383;66009;-56
2024/01/11 02:28:19;;;;;;;1.00;1.00;;;;;;;-5.66;96.61;97748.38;29373;260;63004;-56
2024/01/11 02:28:54;;;;;;;1.73;1.73;;;;;;;-5.65;96.95;97749.19;29371;197;64013;-57
2024/01/11 02:29:27;;;;;;;0.80;0.80;;;;;;;-5.65;97.24;97755.31;29373;211;63011;-56
2024/01/11 02:29:58;;;;;;;0.90;0.90;;;;;;;-5.64;97.37;97750.84;29373;388;63023;-57
2024/01/11 02:30:29;;;;;;;0.80;0.80;;;;;;;-5.64;97.42;97758.78;29372;228;63005;-56
2024/01/11 02:31:02;;;;;;;1.37;1.37;;;;;;;-5.67;97.39;97754.66;29373;220;63009;-58
2024/01/11 02:31:33;;;;;;;0.75;0.75;;;;;;;-5.67;97.27;97762.59;29373;278;63005;-57
2024/01/11 02:32:06;;;;;;;4.75;4.60;;;;;;;-5.68;97.59;97760.94;29373;203;63015;-56
2024/01/11 02:32:38;;;;;;;0.80;0.80;;;;;;;-5.68;97.73;97755.66;29373;303;63005;-57
2024/01/11 02:33:10;;;;;;;0.80;0.80;;;;;;;-5.67;97.90;97757.28;29373;230;63009;-55
2024/01/11 02:33:43;;;;;;;0.80;0.80;;;;;;;-5.68;97.54;97755.66;29371;210;64009;-57
2024/01/11 02:34:15;;;;;;;0.80;0.80;;;;;;;-5.69;97.58;97756.62;29373;197;63009;-56